createdAt,value
2019-03-30T00:02:08.776Z,5.00
2019-03-30T00:04:37.204Z,5.10
2019-03-30T00:07:05.977Z,5.00
2019-03-30T00:09:34.465Z,4.90
2019-03-30T00:12:03.231Z,4.90
2019-03-30T00:14:32.080Z,4.90
2019-03-30T00:17:00.504Z,4.80
2019-03-30T00:19:35.141Z,4.80
2019-03-30T00:21:59.431Z,4.80
2019-03-30T00:24:28.033Z,4.80
2019-03-30T00:26:56.445Z,4.70
2019-03-30T00:29:24.906Z,4.60
2019-03-30T00:31:53.382Z,4.60
2019-03-30T00:34:22.093Z,4.50
2019-03-30T00:36:50.521Z,4.60
2019-03-30T00:39:18.952Z,4.60
2019-03-30T00:41:47.401Z,4.60
2019-03-30T00:44:15.799Z,4.60
2019-03-30T00:46:44.249Z,4.60
2019-03-30T00:49:12.956Z,4.50
2019-03-30T00:51:41.534Z,4.40
2019-03-30T00:54:09.934Z,4.40
2019-03-30T00:56:38.764Z,4.40
2019-03-30T00:59:07.205Z,4.30
2019-03-30T01:01:35.860Z,4.20
2019-03-30T01:04:04.425Z,4.10
2019-03-30T01:06:33.033Z,4.10
2019-03-30T01:09:01.541Z,4.00
2019-03-30T01:11:29.982Z,3.90
2019-03-30T01:13:58.537Z,3.90
2019-03-30T01:16:26.964Z,3.80
2019-03-30T01:18:55.789Z,3.70
2019-03-30T01:21:24.409Z,3.70
2019-03-30T01:23:52.887Z,3.70
2019-03-30T01:26:21.304Z,3.60
2019-03-30T01:28:49.832Z,3.60
2019-03-30T01:31:18.301Z,3.60
2019-03-30T01:33:46.734Z,3.60
2019-03-30T01:36:15.663Z,3.60
2019-03-30T01:38:44.082Z,3.60
2019-03-30T01:41:12.946Z,3.60
2019-03-30T01:43:41.667Z,3.60
2019-03-30T01:46:10.136Z,3.60
2019-03-30T01:48:38.979Z,3.60
2019-03-30T01:51:07.420Z,3.60
2019-03-30T01:53:35.851Z,3.60
2019-03-30T01:56:04.332Z,3.60
2019-03-30T01:58:33.191Z,3.70
2019-03-30T02:01:01.828Z,3.70
2019-03-30T02:03:30.312Z,3.60
2019-03-30T02:05:58.805Z,3.50
2019-03-30T02:08:27.320Z,3.50
2019-03-30T02:10:55.813Z,3.50
2019-03-30T02:13:24.265Z,3.50
2019-03-30T02:15:52.783Z,3.40
2019-03-30T02:18:21.204Z,3.30
2019-03-30T02:20:49.740Z,3.20
2019-03-30T02:23:18.187Z,3.00
2019-03-30T02:25:46.693Z,2.90
2019-03-30T02:28:15.182Z,2.90
2019-03-30T02:30:43.592Z,2.90
2019-03-30T02:33:12.056Z,2.80
2019-03-30T02:35:40.493Z,2.80
2019-03-30T02:38:08.964Z,2.80
2019-03-30T02:40:37.529Z,2.90
2019-03-30T02:43:06.182Z,2.80
2019-03-30T02:45:34.784Z,2.80
2019-03-30T02:48:03.267Z,2.90
2019-03-30T02:50:47.839Z,2.80
2019-03-30T02:53:01.869Z,2.90
2019-03-30T02:55:30.350Z,2.90
2019-03-30T02:57:58.778Z,2.80
2019-03-30T03:00:27.690Z,2.80
2019-03-30T03:02:56.144Z,2.90
2019-03-30T03:05:25.151Z,2.80
2019-03-30T03:07:53.621Z,2.70
2019-03-30T03:10:22.420Z,2.60
2019-03-30T03:12:50.828Z,2.60
2019-03-30T03:15:19.265Z,2.80
2019-03-30T03:17:47.804Z,2.80
2019-03-30T03:20:16.463Z,2.60
2019-03-30T03:22:45.156Z,2.60
2019-03-30T03:25:13.813Z,2.60
2019-03-30T03:27:42.228Z,2.60
2019-03-30T03:30:11.092Z,2.60
2019-03-30T03:32:39.703Z,2.60
2019-03-30T03:35:08.879Z,2.60
2019-03-30T03:37:45.253Z,2.60
2019-03-30T03:40:10.043Z,2.60
2019-03-30T03:42:38.512Z,2.60
2019-03-30T03:45:08.065Z,2.50
2019-03-30T03:47:36.629Z,2.50
2019-03-30T03:50:06.162Z,2.40
2019-03-30T03:52:35.029Z,2.40
2019-03-30T03:55:05.120Z,2.50
2019-03-30T03:57:36.669Z,2.50
2019-03-30T04:00:07.416Z,2.50
2019-03-30T04:02:37.425Z,2.50
2019-03-30T04:05:08.027Z,2.40
2019-03-30T04:07:39.598Z,2.40
2019-03-30T04:10:08.173Z,2.60
2019-03-30T04:12:37.706Z,2.70
2019-03-30T04:15:07.769Z,2.60
2019-03-30T04:17:36.467Z,2.50
2019-03-30T04:20:07.193Z,2.30
2019-03-30T04:22:35.924Z,2.30
2019-03-30T04:25:06.373Z,2.20
2019-03-30T04:27:35.096Z,2.20
2019-03-30T04:30:05.511Z,2.10
2019-03-30T04:32:33.942Z,2.10
2019-03-30T04:35:02.354Z,2.10
2019-03-30T04:37:30.946Z,2.20
2019-03-30T04:39:59.380Z,2.20
2019-03-30T04:42:28.316Z,2.20
2019-03-30T04:44:56.825Z,2.20
2019-03-30T04:47:25.345Z,2.10
2019-03-30T04:49:54.028Z,2.10
2019-03-30T04:52:22.509Z,2.00
2019-03-30T04:54:50.943Z,2.00
2019-03-30T04:57:19.356Z,1.90
2019-03-30T04:59:47.789Z,1.80
2019-03-30T05:02:16.215Z,1.80
2019-03-30T05:04:44.657Z,1.70
2019-03-30T05:07:14.513Z,1.70
2019-03-30T05:09:43.028Z,1.70
2019-03-30T05:12:11.509Z,1.60
2019-03-30T05:14:39.984Z,1.60
2019-03-30T05:17:08.400Z,1.60
2019-03-30T05:19:36.965Z,1.70
2019-03-30T05:22:12.534Z,1.70
2019-03-30T05:24:35.837Z,1.60
2019-03-30T05:27:04.261Z,1.60
2019-03-30T05:29:32.697Z,1.70
2019-03-30T05:32:01.121Z,1.70
2019-03-30T05:34:30.346Z,1.80
2019-03-30T05:36:58.943Z,1.90
2019-03-30T05:39:27.398Z,1.90
2019-03-30T05:41:56.892Z,1.90
2019-03-30T05:44:25.734Z,1.90
2019-03-30T05:46:54.164Z,1.80
2019-03-30T05:49:23.135Z,1.80
2019-03-30T05:51:51.891Z,1.80
2019-03-30T05:54:20.392Z,1.90
2019-03-30T05:56:48.885Z,2.10
2019-03-30T05:59:17.337Z,2.10
2019-03-30T06:01:45.944Z,2.20
2019-03-30T06:04:14.372Z,2.30
2019-03-30T06:06:42.793Z,2.40
2019-03-30T06:09:11.237Z,2.60
2019-03-30T06:11:39.697Z,2.80
2019-03-30T06:14:08.111Z,2.90
2019-03-30T06:16:36.541Z,3.30
2019-03-30T06:19:05.096Z,3.60
2019-03-30T06:21:33.528Z,4.00
2019-03-30T06:24:01.955Z,4.30
2019-03-30T06:26:30.400Z,4.30
2019-03-30T06:28:58.817Z,4.20
2019-03-30T06:31:27.266Z,4.10
2019-03-30T06:33:55.676Z,4.10
2019-03-30T06:36:24.124Z,4.40
2019-03-30T06:38:52.560Z,4.70
2019-03-30T06:41:20.996Z,4.80
2019-03-30T06:43:49.417Z,4.90
2019-03-30T06:46:17.874Z,4.90
2019-03-30T06:48:46.281Z,5.00
2019-03-30T06:51:14.786Z,5.10
2019-03-30T06:53:43.223Z,5.20
2019-03-30T06:56:12.066Z,5.20
2019-03-30T06:58:40.497Z,5.30
2019-03-30T07:01:08.924Z,5.40
2019-03-30T07:03:37.346Z,5.50
2019-03-30T07:06:06.521Z,5.60
2019-03-30T07:08:40.017Z,5.80
2019-03-30T07:11:20.408Z,5.90
2019-03-30T07:13:40.370Z,6.10
2019-03-30T07:16:08.952Z,6.20
2019-03-30T07:18:37.833Z,6.30
2019-03-30T07:21:06.272Z,6.40
2019-03-30T07:23:34.703Z,6.50
2019-03-30T07:26:03.203Z,6.60
2019-03-30T07:28:31.662Z,6.80
2019-03-30T07:31:00.062Z,6.90
2019-03-30T07:33:28.504Z,7.00
2019-03-30T07:35:56.934Z,7.20
2019-03-30T07:38:25.405Z,7.40
2019-03-30T07:40:53.830Z,7.50
2019-03-30T07:43:22.261Z,7.60
2019-03-30T07:45:50.667Z,7.80
2019-03-30T07:48:19.103Z,8.00
2019-03-30T07:50:48.143Z,8.10
2019-03-30T07:53:26.299Z,8.20
2019-03-30T07:55:46.800Z,8.40
2019-03-30T07:58:15.253Z,8.50
2019-03-30T08:00:43.670Z,8.70
2019-03-30T08:03:12.081Z,8.80
2019-03-30T08:05:40.546Z,8.90
2019-03-30T08:08:08.976Z,9.00
2019-03-30T08:10:37.404Z,9.20
2019-03-30T08:13:05.832Z,9.50
2019-03-30T08:15:34.267Z,9.60
2019-03-30T08:18:02.693Z,9.80
2019-03-30T08:20:31.128Z,10.00
2019-03-30T08:22:59.544Z,10.10
2019-03-30T08:25:27.985Z,10.30
2019-03-30T08:27:56.397Z,10.40
2019-03-30T08:30:24.829Z,10.60
2019-03-30T08:32:53.256Z,10.60
2019-03-30T08:35:21.740Z,10.70
2019-03-30T08:37:50.149Z,10.90
2019-03-30T08:40:18.596Z,11.10
2019-03-30T08:42:47.027Z,11.40
2019-03-30T08:45:15.610Z,11.50
2019-03-30T08:47:44.037Z,11.60
2019-03-30T08:50:13.316Z,11.80
2019-03-30T08:52:41.751Z,11.90
2019-03-30T08:55:10.424Z,12.10
2019-03-30T08:57:38.849Z,12.20
2019-03-30T09:00:07.738Z,12.30
2019-03-30T09:02:36.158Z,12.50
2019-03-30T09:05:06.819Z,12.60
2019-03-30T09:07:35.256Z,12.80
2019-03-30T09:10:07.661Z,13.00
2019-03-30T09:12:36.108Z,13.00
2019-03-30T09:15:06.261Z,13.20
2019-03-30T09:17:37.271Z,13.30
2019-03-30T09:20:07.988Z,13.50
2019-03-30T09:22:36.564Z,13.60
2019-03-30T09:25:05.334Z,13.70
2019-03-30T09:27:33.772Z,13.80
2019-03-30T09:30:02.226Z,13.90
2019-03-30T09:32:31.143Z,14.00
2019-03-30T09:34:59.558Z,14.00
2019-03-30T09:37:28.000Z,14.10
2019-03-30T09:39:56.531Z,14.40
2019-03-30T09:42:24.954Z,14.40
2019-03-30T09:44:53.373Z,14.50
2019-03-30T09:47:21.844Z,14.50
2019-03-30T09:49:50.282Z,14.70
2019-03-30T09:52:18.705Z,14.70
2019-03-30T09:54:47.273Z,14.70
2019-03-30T09:57:15.753Z,14.80
2019-03-30T09:59:44.234Z,14.90
2019-03-30T10:02:12.753Z,15.10
2019-03-30T10:04:41.192Z,15.20
2019-03-30T10:07:09.730Z,15.40
2019-03-30T10:09:38.396Z,15.50
2019-03-30T10:12:06.916Z,15.60
2019-03-30T10:14:35.593Z,15.70
2019-03-30T10:17:04.172Z,15.70
2019-03-30T10:19:32.624Z,15.90
2019-03-30T10:22:01.078Z,16.00
2019-03-30T10:24:37.929Z,16.10
2019-03-30T10:26:59.656Z,16.20
2019-03-30T10:29:28.108Z,16.40
2019-03-30T10:31:59.745Z,16.50
2019-03-30T10:34:26.973Z,16.50
2019-03-30T10:36:55.967Z,16.60
2019-03-30T10:39:24.393Z,16.70
2019-03-30T10:41:52.983Z,16.90
2019-03-30T10:44:21.488Z,17.00
2019-03-30T10:46:49.913Z,17.10
2019-03-30T10:49:18.381Z,17.30
2019-03-30T10:51:46.798Z,17.30
2019-03-30T10:54:15.438Z,17.20
2019-03-30T10:56:43.985Z,17.30
2019-03-30T10:59:12.467Z,17.40
2019-03-30T11:01:41.133Z,17.50
2019-03-30T11:04:09.855Z,17.50
2019-03-30T11:06:38.693Z,17.50
2019-03-30T11:09:07.196Z,17.40
2019-03-30T11:11:35.757Z,17.50
2019-03-30T11:14:04.641Z,17.50
2019-03-30T11:16:33.120Z,17.60
2019-03-30T11:19:01.619Z,17.70
2019-03-30T11:21:30.039Z,17.80
2019-03-30T11:23:58.484Z,18.00
2019-03-30T11:26:26.931Z,17.90
2019-03-30T11:28:55.711Z,17.90
2019-03-30T11:31:24.630Z,18.00
2019-03-30T11:33:53.099Z,18.10
2019-03-30T11:36:21.545Z,18.20
2019-03-30T11:38:49.957Z,18.20
2019-03-30T11:41:18.405Z,18.20
2019-03-30T11:43:47.121Z,18.30
2019-03-30T11:46:15.923Z,18.30
2019-03-30T11:48:44.404Z,18.40
2019-03-30T11:51:12.916Z,18.50
2019-03-30T11:53:41.751Z,18.50
2019-03-30T11:56:10.177Z,18.60
2019-03-30T11:58:38.763Z,18.60
2019-03-30T12:01:07.208Z,18.50
2019-03-30T12:03:35.635Z,18.50
2019-03-30T12:06:04.152Z,18.60
2019-03-30T12:11:08.469Z,18.70
2019-03-30T12:13:36.997Z,18.70
2019-03-30T12:16:05.514Z,18.70
2019-03-30T12:21:33.212Z,18.90
2019-03-30T12:24:01.655Z,18.90
2019-03-30T12:26:39.289Z,18.90
2019-03-30T12:29:14.665Z,19.00
2019-03-30T12:31:43.670Z,19.00
2019-03-30T12:34:13.219Z,19.00
2019-03-30T12:36:41.930Z,19.00
2019-03-30T12:39:10.372Z,19.00
2019-03-30T12:41:40.570Z,19.00
2019-03-30T12:44:09.049Z,19.00
2019-03-30T12:46:37.467Z,19.20
2019-03-30T12:49:05.915Z,19.20
2019-03-30T12:51:49.264Z,19.20
2019-03-30T12:54:17.711Z,19.40
2019-03-30T12:56:46.121Z,19.50
2019-03-30T12:59:14.632Z,19.50
2019-03-30T13:01:43.053Z,19.60
2019-03-30T13:04:11.497Z,19.70
2019-03-30T13:06:39.926Z,19.60
2019-03-30T13:09:08.361Z,19.60
2019-03-30T13:11:36.928Z,19.80
2019-03-30T13:14:05.561Z,19.60
2019-03-30T13:16:33.981Z,19.80
2019-03-30T13:19:02.401Z,19.80
2019-03-30T13:21:32.439Z,19.70
2019-03-30T13:24:01.152Z,19.80
2019-03-30T13:26:29.638Z,19.90
2019-03-30T13:28:58.149Z,20.00
2019-03-30T13:31:26.584Z,20.00
2019-03-30T13:34:05.057Z,20.00
2019-03-30T13:36:37.580Z,20.00
2019-03-30T13:39:07.080Z,19.90
2019-03-30T13:41:36.214Z,19.90
2019-03-30T13:44:05.594Z,20.00
2019-03-30T13:46:34.190Z,20.10
2019-03-30T13:49:02.671Z,20.20
2019-03-30T13:51:31.097Z,20.20
2019-03-30T13:53:59.617Z,20.20
2019-03-30T13:56:28.049Z,20.20
2019-03-30T13:58:56.564Z,20.30
2019-03-30T14:01:25.153Z,20.30
2019-03-30T14:03:53.592Z,20.30
2019-03-30T14:06:22.029Z,20.40
2019-03-30T14:08:50.472Z,20.50
2019-03-30T14:11:18.904Z,20.60
2019-03-30T14:13:47.367Z,20.60
2019-03-30T14:16:16.471Z,20.60
2019-03-30T14:18:45.505Z,20.60
2019-03-30T14:21:14.093Z,20.60
2019-03-30T14:23:43.610Z,20.50
2019-03-30T14:26:12.565Z,20.70
2019-03-30T14:28:41.093Z,21.00
2019-03-30T14:31:09.548Z,21.20
2019-03-30T14:33:37.982Z,21.50
2019-03-30T14:36:06.417Z,21.60
2019-03-30T14:38:34.945Z,22.00
2019-03-30T14:41:03.955Z,22.20
2019-03-30T14:46:15.096Z,22.80
2019-03-30T14:48:45.830Z,23.30
2019-03-30T14:51:14.489Z,23.80
2019-03-30T14:53:42.933Z,24.20
2019-03-30T14:56:11.474Z,24.80
2019-03-30T14:58:39.946Z,25.80
2019-03-30T15:01:08.373Z,26.90
2019-03-30T15:03:36.857Z,27.30
2019-03-30T15:06:07.032Z,28.10
2019-03-30T15:08:35.461Z,27.60
2019-03-30T15:11:03.980Z,27.70
2019-03-30T15:13:32.431Z,27.30
2019-03-30T15:16:00.929Z,26.90
2019-03-30T15:18:29.380Z,27.40
2019-03-30T15:20:57.925Z,27.40
2019-03-30T15:23:27.143Z,27.30
2019-03-30T15:25:59.152Z,27.10
2019-03-30T15:28:32.235Z,27.50
2019-03-30T15:31:01.903Z,27.50
2019-03-30T15:33:30.417Z,27.40
2019-03-30T15:35:58.913Z,27.00
2019-03-30T15:38:28.111Z,26.70
2019-03-30T15:40:58.443Z,26.70
2019-03-30T15:43:37.467Z,26.20
2019-03-30T15:45:57.107Z,25.20
2019-03-30T15:48:28.235Z,24.50
2019-03-30T15:50:55.744Z,24.00
2019-03-30T15:53:26.682Z,23.50
2019-03-30T15:55:55.138Z,23.00
2019-03-30T15:58:23.824Z,22.80
2019-03-30T16:00:52.282Z,22.50
2019-03-30T16:03:20.826Z,22.10
2019-03-30T16:05:49.339Z,21.90
2019-03-30T16:08:21.762Z,22.00
2019-03-30T16:10:52.342Z,21.90
2019-03-30T16:13:23.344Z,21.80
2019-03-30T16:15:51.828Z,21.50
2019-03-30T16:18:21.841Z,21.20
2019-03-30T16:20:51.813Z,21.00
2019-03-30T16:23:20.259Z,20.80
2019-03-30T16:25:48.822Z,20.70
2019-03-30T16:28:18.978Z,20.50
2019-03-30T16:30:47.424Z,20.50
2019-03-30T16:33:18.170Z,20.50
2019-03-30T16:35:46.617Z,20.40
2019-03-30T16:38:15.052Z,20.30
2019-03-30T16:40:44.842Z,20.10
2019-03-30T16:46:02.508Z,20.00
2019-03-30T16:48:30.932Z,19.90
2019-03-30T16:50:59.380Z,19.80
2019-03-30T16:53:27.800Z,19.70
2019-03-30T16:55:56.344Z,19.60
2019-03-30T16:58:24.763Z,19.50
2019-03-30T17:00:56.638Z,19.40
2019-03-30T17:03:23.372Z,19.30
2019-03-30T17:05:51.811Z,19.20
2019-03-30T17:08:20.318Z,19.10
2019-03-30T17:10:48.767Z,19.00
2019-03-30T17:13:17.228Z,18.70
2019-03-30T17:15:45.651Z,18.50
2019-03-30T17:18:14.149Z,18.30
2019-03-30T17:20:43.068Z,18.00
2019-03-30T17:23:11.532Z,17.70
2019-03-30T17:25:40.057Z,17.60
2019-03-30T17:28:08.491Z,17.40
2019-03-30T17:30:37.033Z,17.10
2019-03-30T17:33:06.344Z,16.90
2019-03-30T17:35:34.769Z,16.60
2019-03-30T17:38:03.224Z,16.40
2019-03-30T17:40:31.636Z,16.10
2019-03-30T17:43:00.090Z,15.80
2019-03-30T17:45:35.824Z,15.30
2019-03-30T17:48:04.482Z,14.90
2019-03-30T17:50:33.606Z,14.70
2019-03-30T17:53:02.089Z,14.50
2019-03-30T17:55:33.872Z,14.40
2019-03-30T17:58:12.356Z,14.30
2019-03-30T18:00:31.215Z,14.20
2019-03-30T18:02:59.789Z,14.10
2019-03-30T18:05:28.228Z,14.00
2019-03-30T18:07:56.834Z,14.10
2019-03-30T18:10:31.060Z,14.00
2019-03-30T18:12:59.550Z,13.90
2019-03-30T18:15:27.988Z,13.80
2019-03-30T18:17:56.787Z,13.60
2019-03-30T18:20:25.602Z,13.40
2019-03-30T18:22:54.117Z,13.40
2019-03-30T18:25:22.654Z,13.30
2019-03-30T18:27:51.061Z,13.30
2019-03-30T18:30:41.066Z,13.30
2019-03-30T18:33:09.547Z,13.10
2019-03-30T18:35:39.961Z,12.90
2019-03-30T18:38:08.829Z,12.60
2019-03-30T18:40:37.336Z,12.40
2019-03-30T18:43:05.869Z,12.30
2019-03-30T18:45:34.407Z,12.10
2019-03-30T18:48:16.494Z,11.90
2019-03-30T18:50:46.122Z,11.90
2019-03-30T18:53:16.222Z,11.90
2019-03-30T18:55:45.971Z,11.90
2019-03-30T18:58:15.583Z,11.80
2019-03-30T19:00:44.028Z,11.70
2019-03-30T19:03:12.449Z,11.50
2019-03-30T19:05:51.744Z,11.40
2019-03-30T19:08:23.481Z,11.30
2019-03-30T19:10:53.543Z,11.20
2019-03-30T19:13:22.008Z,11.20
2019-03-30T19:15:50.664Z,11.20
2019-03-30T19:18:19.218Z,11.20
2019-03-30T19:20:47.675Z,11.20
2019-03-30T19:23:16.249Z,11.20
2019-03-30T19:25:44.769Z,11.10
2019-03-30T19:28:35.123Z,11.10
2019-03-30T19:31:05.243Z,11.00
2019-03-30T19:33:33.982Z,10.90
2019-03-30T19:36:03.774Z,10.70
2019-03-30T19:38:33.033Z,10.50
2019-03-30T19:41:02.572Z,10.40
2019-03-30T19:43:34.006Z,10.30
2019-03-30T19:46:02.642Z,10.20
2019-03-30T19:48:31.056Z,10.10
2019-03-30T19:50:59.501Z,10.10
2019-03-30T19:53:27.934Z,10.10
2019-03-30T19:55:57.833Z,10.10
2019-03-30T19:58:26.368Z,10.10
2019-03-30T20:00:54.774Z,10.10
2019-03-30T20:03:23.453Z,10.00
2019-03-30T20:05:54.139Z,10.00
2019-03-30T20:08:22.624Z,10.00
2019-03-30T20:10:51.069Z,9.90
2019-03-30T20:13:19.611Z,9.90
2019-03-30T20:15:48.026Z,9.90
2019-03-30T20:18:18.075Z,9.60
2019-03-30T20:21:02.262Z,9.50
2019-03-30T20:23:32.839Z,9.30
2019-03-30T20:26:01.276Z,9.20
2019-03-30T20:28:30.834Z,9.10
2019-03-30T20:30:59.282Z,9.00
2019-03-30T20:33:27.757Z,9.00
2019-03-30T20:35:56.184Z,9.00
2019-03-30T20:38:24.623Z,9.00
2019-03-30T20:40:53.096Z,8.90
2019-03-30T20:43:21.528Z,8.80
2019-03-30T20:45:51.634Z,8.80
2019-03-30T20:48:20.157Z,8.70
2019-03-30T20:50:48.682Z,8.70
2019-03-30T20:53:17.217Z,8.70
2019-03-30T20:55:45.666Z,8.70
2019-03-30T21:01:43.083Z,8.50
2019-03-30T21:04:11.533Z,8.50
2019-03-30T21:06:39.969Z,8.50
2019-03-30T21:09:10.168Z,8.40
2019-03-30T21:11:38.579Z,8.40
2019-03-30T21:14:07.042Z,8.20
2019-03-30T21:40:25.343Z,7.50
2019-03-30T21:42:53.815Z,7.40
2019-03-30T21:45:22.297Z,7.50
2019-03-30T21:47:50.725Z,7.40
2019-03-30T21:50:19.156Z,7.40
2019-03-30T21:52:47.602Z,7.40
2019-03-30T21:55:16.077Z,7.40
2019-03-30T21:57:44.622Z,7.50
2019-03-30T22:00:16.142Z,7.40
2019-03-30T22:02:44.653Z,7.40
2019-03-30T22:05:13.234Z,7.50
2019-03-30T22:07:41.917Z,7.40
2019-03-30T22:10:13.454Z,7.30
2019-03-30T22:12:42.856Z,7.10
2019-03-30T22:15:12.930Z,7.00
2019-03-30T22:17:41.431Z,7.00
2019-03-30T22:20:10.122Z,7.00
2019-03-30T22:22:38.640Z,7.00
2019-03-30T22:25:07.730Z,7.10
2019-03-30T22:27:36.183Z,7.20
2019-03-30T22:30:06.853Z,7.20
2019-03-30T22:32:35.324Z,7.20
2019-03-30T22:35:04.261Z,7.10
2019-03-30T22:37:32.728Z,7.00
2019-03-30T22:40:01.216Z,6.90
2019-03-30T22:42:29.748Z,6.70
2019-03-30T22:44:58.149Z,6.60
2019-03-30T22:47:26.658Z,6.50
2019-03-30T22:49:55.089Z,6.40
2019-03-30T22:52:23.539Z,6.50
2019-03-30T22:54:51.993Z,6.60
2019-03-30T22:57:20.440Z,6.60
2019-03-30T22:59:48.870Z,6.60
2019-03-30T23:02:17.301Z,6.50
2019-03-30T23:04:45.820Z,6.40
2019-03-30T23:07:14.524Z,6.30
2019-03-30T23:09:43.013Z,6.20
2019-03-30T23:12:11.457Z,6.10
2019-03-30T23:14:39.955Z,6.10
2019-03-30T23:17:08.421Z,6.00
2019-03-30T23:19:36.893Z,6.00
2019-03-30T23:22:05.428Z,6.00
2019-03-30T23:24:33.951Z,5.90
2019-03-30T23:27:02.357Z,5.90
2019-03-30T23:29:30.892Z,5.80
2019-03-30T23:31:59.302Z,5.70
2019-03-30T23:34:27.757Z,5.70
2019-03-30T23:36:56.262Z,5.60
2019-03-30T23:39:24.774Z,5.70
2019-03-30T23:41:53.201Z,5.70
2019-03-30T23:44:21.646Z,5.60
2019-03-30T23:46:50.080Z,5.70
2019-03-30T23:49:18.619Z,5.70
2019-03-30T23:51:47.874Z,5.60
2019-03-30T23:54:16.312Z,5.60
2019-03-30T23:56:44.752Z,5.60
2019-03-30T23:59:13.196Z,5.50
